createdAt,value
2022-09-26T00:01:45.696Z,10.28
2022-09-26T00:06:50.621Z,10.28
2022-09-26T00:11:54.047Z,10.32
2022-09-26T00:16:57.563Z,10.31
2022-09-26T00:22:01.794Z,10.27
2022-09-26T00:27:04.714Z,10.24
2022-09-26T00:32:07.469Z,10.22
2022-09-26T00:37:11.560Z,10.24
2022-09-26T00:42:15.693Z,10.28
2022-09-26T00:47:25.906Z,10.25
2022-09-26T00:52:33.906Z,10.29
2022-09-26T00:57:41.826Z,10.34
2022-09-26T01:02:47.920Z,10.41
2022-09-26T01:07:53.786Z,10.46
2022-09-26T01:12:58.143Z,10.43
2022-09-26T01:18:01.086Z,10.42
2022-09-26T01:23:35.573Z,10.46
2022-09-26T01:28:58.899Z,10.49
2022-09-26T01:34:07.888Z,10.50
2022-09-26T01:39:24.207Z,10.51
2022-09-26T01:44:32.013Z,10.52
2022-09-26T01:49:44.230Z,10.52
2022-09-26T01:54:54.235Z,10.49
2022-09-26T02:00:02.298Z,10.50
2022-09-26T02:05:13.163Z,10.35
2022-09-26T02:10:19.536Z,10.28
2022-09-26T02:15:25.607Z,10.23
2022-09-26T02:20:32.518Z,10.26
2022-09-26T02:25:35.825Z,10.27
2022-09-26T02:30:40.114Z,10.26
2022-09-26T02:35:57.447Z,10.23
2022-09-26T02:41:06.851Z,10.20
2022-09-26T02:46:26.745Z,10.15
2022-09-26T02:51:47.503Z,10.04
2022-09-26T02:57:03.426Z,9.90
2022-09-26T03:02:11.749Z,9.78
2022-09-26T03:07:21.823Z,9.70
2022-09-26T03:12:26.366Z,9.64
2022-09-26T03:17:29.421Z,9.58
2022-09-26T03:22:33.973Z,9.54
2022-09-26T03:27:41.886Z,9.39
2022-09-26T03:32:44.634Z,9.31
2022-09-26T03:37:48.776Z,9.25
2022-09-26T03:42:51.434Z,9.17
2022-09-26T03:47:57.285Z,9.09
2022-09-26T03:53:01.389Z,8.99
2022-09-26T03:58:04.177Z,8.92
2022-09-26T04:03:06.930Z,8.90
2022-09-26T04:08:10.987Z,8.88
2022-09-26T04:13:33.736Z,8.91
2022-09-26T04:18:37.062Z,8.89
2022-09-26T04:23:42.453Z,8.89
2022-09-26T04:28:45.888Z,8.77
2022-09-26T04:33:49.142Z,8.71
2022-09-26T04:38:53.290Z,8.64
2022-09-26T04:43:56.992Z,8.62
2022-09-26T04:49:01.289Z,8.65
2022-09-26T04:54:05.405Z,8.64
2022-09-26T04:59:08.222Z,8.66
2022-09-26T05:04:12.369Z,8.60
2022-09-26T05:09:16.446Z,8.54
2022-09-26T05:14:19.191Z,8.57
2022-09-26T05:19:21.888Z,8.51
2022-09-26T05:24:43.595Z,8.38
2022-09-26T05:29:46.288Z,8.34
2022-09-26T05:34:48.966Z,8.35
2022-09-26T05:40:10.663Z,8.39
2022-09-26T05:45:15.717Z,8.35
2022-09-26T05:50:22.291Z,8.23
2022-09-26T05:55:26.498Z,8.20
2022-09-26T06:00:29.613Z,8.22
2022-09-26T06:05:33.675Z,8.27
2022-09-26T06:10:38.771Z,8.31
2022-09-26T06:15:43.200Z,8.44
2022-09-26T06:20:45.913Z,8.47
2022-09-26T06:25:49.959Z,8.44
2022-09-26T06:30:52.685Z,8.53
2022-09-26T06:36:00.980Z,8.83
2022-09-26T06:41:05.580Z,9.14
2022-09-26T06:46:09.706Z,9.38
2022-09-26T06:51:13.742Z,9.50
2022-09-26T06:56:18.172Z,9.55
2022-09-26T07:01:21.072Z,9.64
2022-09-26T07:06:24.366Z,9.91
2022-09-26T07:11:38.181Z,10.28
2022-09-26T07:16:44.643Z,10.67
2022-09-26T07:21:48.418Z,11.01
2022-09-26T07:26:52.516Z,11.19
2022-09-26T07:31:55.274Z,11.28
2022-09-26T07:36:59.562Z,11.35
2022-09-26T07:42:03.702Z,11.49
2022-09-26T07:47:23.888Z,11.53
2022-09-26T07:52:28.788Z,11.68
2022-09-26T07:57:34.214Z,11.78
2022-09-26T08:02:37.009Z,11.88
2022-09-26T08:07:39.837Z,11.96
2022-09-26T08:12:43.924Z,12.00
2022-09-26T08:17:46.658Z,12.18
2022-09-26T08:22:49.362Z,12.38
2022-09-26T08:27:59.568Z,12.54
2022-09-26T08:33:02.646Z,12.65
2022-09-26T08:38:07.737Z,12.80
2022-09-26T08:43:30.037Z,12.90
2022-09-26T08:48:44.184Z,12.94
2022-09-26T08:53:53.042Z,13.00
2022-09-26T08:58:59.616Z,13.01
2022-09-26T09:04:06.883Z,13.03
2022-09-26T09:09:17.061Z,13.11
2022-09-26T09:14:40.562Z,13.12
2022-09-26T09:19:54.563Z,13.36
2022-09-26T09:25:01.254Z,13.38
2022-09-26T09:30:17.488Z,13.52
2022-09-26T09:35:25.967Z,13.56
2022-09-26T09:40:34.980Z,13.71
2022-09-26T09:45:45.141Z,13.94
2022-09-26T09:51:02.079Z,14.04
2022-09-26T09:56:13.882Z,14.31
2022-09-26T10:01:25.303Z,14.50
2022-09-26T10:06:44.496Z,14.78
2022-09-26T10:11:52.674Z,14.98
2022-09-26T10:17:20.689Z,15.15
2022-09-26T10:22:32.598Z,15.34
2022-09-26T10:27:38.449Z,15.33
2022-09-26T10:32:50.706Z,15.25
2022-09-26T10:38:03.544Z,15.42
2022-09-26T10:43:24.594Z,15.47
2022-09-26T10:48:42.928Z,15.75
2022-09-26T10:53:47.657Z,15.88
2022-09-26T10:58:52.107Z,16.19
2022-09-26T11:03:59.985Z,16.19
2022-09-26T11:09:05.164Z,16.49
2022-09-26T11:14:09.817Z,16.69
2022-09-26T11:19:19.739Z,16.34
2022-09-26T11:24:30.618Z,16.29
2022-09-26T11:29:43.513Z,16.02
2022-09-26T11:34:47.608Z,16.02
2022-09-26T11:40:09.279Z,16.08
2022-09-26T11:45:24.296Z,16.52
2022-09-26T11:50:47.986Z,17.00
2022-09-26T11:56:06.632Z,17.06
2022-09-26T12:01:19.821Z,17.13
2022-09-26T12:06:36.319Z,17.27
2022-09-26T12:11:46.578Z,17.42
2022-09-26T12:16:59.027Z,17.69
2022-09-26T12:22:27.727Z,17.65
2022-09-26T12:27:38.778Z,17.65
2022-09-26T12:33:32.789Z,17.67
2022-09-26T12:39:00.385Z,17.60
2022-09-26T12:44:46.026Z,17.57
2022-09-26T12:50:04.601Z,17.52
2022-09-26T12:55:27.383Z,17.56
2022-09-26T13:00:40.781Z,18.00
2022-09-26T13:06:07.798Z,18.26
2022-09-26T13:11:22.336Z,17.81
2022-09-26T13:16:34.033Z,17.62
2022-09-26T13:21:45.673Z,17.68
2022-09-26T13:26:54.508Z,17.84
2022-09-26T13:32:08.482Z,18.11
2022-09-26T13:37:20.626Z,17.89
2022-09-26T13:42:34.386Z,17.47
2022-09-26T13:47:46.441Z,16.98
2022-09-26T13:53:00.843Z,16.72
2022-09-26T13:58:21.152Z,16.48
2022-09-26T14:03:41.742Z,16.19
2022-09-26T14:09:28.546Z,16.12
2022-09-26T14:15:07.934Z,15.97
2022-09-26T14:20:20.145Z,15.99
2022-09-26T14:25:56.360Z,16.00
2022-09-26T14:31:22.967Z,16.02
2022-09-26T14:36:28.308Z,15.92
2022-09-26T14:41:34.469Z,15.72
2022-09-26T14:46:41.766Z,15.53
2022-09-26T14:51:49.873Z,15.41
2022-09-26T14:57:00.837Z,15.27
2022-09-26T15:02:26.947Z,15.10
2022-09-26T15:07:32.839Z,15.02
2022-09-26T15:12:44.166Z,14.95
2022-09-26T15:17:53.771Z,15.11
2022-09-26T15:22:57.424Z,15.05
2022-09-26T15:28:00.902Z,14.97
2022-09-26T15:33:06.034Z,14.95
2022-09-26T15:38:13.104Z,14.78
2022-09-26T15:43:21.383Z,14.61
2022-09-26T15:48:31.871Z,14.51
2022-09-26T15:53:39.425Z,14.36
2022-09-26T15:58:47.213Z,14.23
2022-09-26T16:03:58.305Z,14.15
2022-09-26T16:09:07.604Z,14.16
2022-09-26T16:14:26.621Z,14.30
2022-09-26T16:19:34.917Z,14.42
2022-09-26T16:24:37.880Z,14.31
2022-09-26T16:29:40.567Z,14.12
2022-09-26T16:34:45.272Z,14.04
2022-09-26T16:39:56.150Z,14.05
2022-09-26T16:44:59.611Z,13.96
2022-09-26T16:55:37.443Z,13.72
2022-09-26T17:00:57.646Z,13.62
2022-09-26T17:06:01.381Z,13.54
2022-09-26T17:11:11.405Z,13.36
2022-09-26T17:16:14.498Z,13.23
2022-09-26T17:21:17.174Z,13.12
2022-09-26T17:26:23.694Z,13.00
2022-09-26T17:31:27.044Z,13.03
2022-09-26T17:36:30.830Z,12.98
2022-09-26T17:41:37.760Z,12.94
2022-09-26T17:46:42.798Z,12.95
2022-09-26T17:51:45.570Z,12.92
2022-09-26T17:56:49.630Z,13.04
2022-09-26T18:01:55.023Z,13.19
2022-09-26T18:07:02.018Z,13.24
2022-09-26T18:12:06.359Z,13.25
2022-09-26T18:17:15.422Z,13.18
2022-09-26T18:22:20.134Z,13.17
2022-09-26T18:27:24.246Z,13.05
2022-09-26T18:32:31.732Z,12.98
2022-09-26T18:37:34.407Z,12.90
2022-09-26T18:42:39.074Z,12.76
2022-09-26T18:47:44.673Z,12.67
2022-09-26T18:52:47.650Z,12.63
2022-09-26T18:58:08.928Z,12.67
2022-09-26T19:03:11.664Z,12.64
2022-09-26T19:08:28.593Z,12.59
2022-09-26T19:13:33.322Z,12.55
2022-09-26T19:18:36.684Z,12.46
2022-09-26T19:23:39.437Z,12.39
2022-09-26T19:28:43.574Z,12.37
2022-09-26T19:33:48.670Z,12.29
2022-09-26T19:38:51.190Z,12.08
2022-09-26T19:43:55.486Z,12.03
2022-09-26T19:48:58.397Z,12.01
2022-09-26T19:54:05.959Z,12.03
2022-09-26T19:59:11.456Z,12.05
2022-09-26T20:04:16.659Z,12.10
2022-09-26T20:09:20.643Z,12.16
2022-09-26T20:14:25.247Z,12.23
2022-09-26T20:19:33.255Z,12.35
2022-09-26T20:24:39.617Z,12.52
2022-09-26T20:30:01.074Z,12.61
2022-09-26T20:35:04.646Z,12.64
2022-09-26T20:40:14.548Z,12.67
2022-09-26T20:45:23.595Z,12.74
2022-09-26T20:50:31.818Z,12.90
2022-09-26T20:55:39.641Z,12.95
2022-09-26T21:00:47.955Z,13.00
2022-09-26T21:05:50.695Z,12.96
2022-09-26T21:10:53.421Z,12.83
2022-09-26T21:15:57.490Z,12.58
2022-09-26T21:21:05.381Z,12.40
2022-09-26T21:26:08.087Z,12.25
2022-09-26T21:31:22.150Z,12.11
2022-09-26T21:36:30.410Z,12.00
2022-09-26T21:41:37.030Z,11.86
2022-09-26T21:46:41.112Z,11.66
2022-09-26T21:51:45.575Z,11.53
2022-09-26T21:56:53.093Z,11.35
2022-09-26T22:01:57.546Z,11.24
2022-09-26T22:07:00.294Z,11.19
2022-09-26T22:12:03.064Z,11.14
2022-09-26T22:17:07.207Z,11.11
2022-09-26T22:22:10.923Z,11.10
2022-09-26T22:27:13.620Z,11.10
2022-09-26T22:32:18.053Z,11.00
2022-09-26T22:37:20.751Z,10.87
2022-09-26T22:42:23.419Z,10.85
2022-09-26T22:47:27.479Z,10.87
2022-09-26T22:52:30.190Z,10.80
2022-09-26T22:57:32.919Z,10.72
2022-09-26T23:02:38.061Z,10.66
2022-09-26T23:07:40.844Z,10.57
2022-09-26T23:12:43.531Z,10.48
2022-09-26T23:17:48.119Z,10.34
2022-09-26T23:22:50.803Z,10.26
2022-09-26T23:27:53.489Z,10.18
2022-09-26T23:32:57.525Z,10.09
2022-09-26T23:38:00.762Z,10.10
2022-09-26T23:43:03.441Z,10.03
2022-09-26T23:48:07.491Z,10.04
2022-09-26T23:53:10.216Z,10.07
2022-09-26T23:58:13.284Z,10.07
